createdAt,value
2023-01-02T00:01:06.765Z,9.70
2023-01-02T00:03:34.341Z,9.00
2023-01-02T00:06:06.181Z,8.57
2023-01-02T00:08:34.005Z,9.18
2023-01-02T00:11:01.703Z,8.18
2023-01-02T00:13:29.373Z,8.80
2023-01-02T00:15:56.882Z,7.65
2023-01-02T00:18:24.168Z,8.55
2023-01-02T00:20:51.632Z,9.73
2023-01-02T00:23:19.102Z,8.05
2023-01-02T00:25:48.491Z,8.35
2023-01-02T00:28:16.202Z,8.10
2023-01-02T00:30:43.624Z,9.82
2023-01-02T00:33:11.007Z,8.68
2023-01-02T00:35:39.173Z,9.30
2023-01-02T00:38:07.094Z,7.47
2023-01-02T00:40:35.104Z,7.43
2023-01-02T00:43:02.560Z,7.97
2023-01-02T00:45:29.950Z,8.15
2023-01-02T00:47:57.393Z,8.55
2023-01-02T00:50:24.595Z,7.78
2023-01-02T00:52:51.855Z,8.10
2023-01-02T00:55:19.170Z,8.88
2023-01-02T00:57:46.370Z,8.63
2023-01-02T01:00:18.515Z,6.55
2023-01-02T01:02:50.872Z,7.78
2023-01-02T01:05:18.964Z,9.18
2023-01-02T01:07:46.192Z,7.07
2023-01-02T01:10:13.402Z,7.95
2023-01-02T01:12:41.094Z,6.53
2023-01-02T01:15:08.630Z,7.13
2023-01-02T01:17:35.890Z,6.88
2023-01-02T01:20:05.145Z,6.28
2023-01-02T01:22:32.770Z,7.03
2023-01-02T01:24:59.963Z,8.68
2023-01-02T01:27:27.246Z,7.78
2023-01-02T01:29:54.539Z,7.15
2023-01-02T01:32:21.950Z,7.13
2023-01-02T01:34:49.216Z,7.75
2023-01-02T01:37:16.475Z,6.97
2023-01-02T01:39:43.673Z,7.03
2023-01-02T01:42:13.945Z,7.35
2023-01-02T01:44:50.315Z,5.85
2023-01-02T01:47:35.666Z,6.90
2023-01-02T01:50:22.895Z,6.63
2023-01-02T01:52:57.544Z,7.00
2023-01-02T01:55:31.896Z,7.30
2023-01-02T01:58:04.147Z,7.03
2023-01-02T02:00:32.027Z,7.05
2023-01-02T02:03:03.471Z,8.25
2023-01-02T02:05:31.617Z,6.70
2023-01-02T02:08:19.508Z,6.85
2023-01-02T02:10:48.074Z,7.75
2023-01-02T02:13:15.565Z,8.15
2023-01-02T02:15:49.566Z,7.85
2023-01-02T02:18:41.444Z,8.35
2023-01-02T02:22:04.221Z,7.22
2023-01-02T02:25:02.075Z,6.97
2023-01-02T02:28:09.171Z,6.90
2023-01-02T02:30:53.330Z,7.45
2023-01-02T02:33:41.242Z,6.28
2023-01-02T02:36:33.496Z,8.00
2023-01-02T02:39:22.013Z,6.63
2023-01-02T02:42:26.897Z,7.18
2023-01-02T02:45:06.831Z,6.50
2023-01-02T02:47:51.725Z,7.15
2023-01-02T02:50:35.316Z,7.70
2023-01-02T02:53:24.365Z,6.93
2023-01-02T02:56:01.127Z,7.63
2023-01-02T02:58:29.612Z,7.20
2023-01-02T03:01:28.342Z,5.97
2023-01-02T03:03:57.347Z,6.10
2023-01-02T03:06:32.009Z,6.70
2023-01-02T03:09:19.079Z,7.07
2023-01-02T03:12:19.061Z,7.78
2023-01-02T03:15:14.397Z,7.18
2023-01-02T03:17:44.634Z,6.28
2023-01-02T03:20:16.571Z,6.72
2023-01-02T03:22:52.586Z,6.60
2023-01-02T03:25:22.009Z,6.07
2023-01-02T03:27:51.636Z,7.55
2023-01-02T03:30:21.660Z,6.53
2023-01-02T03:32:59.964Z,6.78
2023-01-02T03:35:36.341Z,6.45
2023-01-02T03:38:08.608Z,6.57
2023-01-02T03:40:42.628Z,6.63
2023-01-02T03:43:15.061Z,6.28
2023-01-02T03:46:01.828Z,6.32
2023-01-02T03:48:38.921Z,6.47
2023-01-02T03:51:07.156Z,5.53
2023-01-02T03:53:36.627Z,6.38
2023-01-02T03:56:11.930Z,6.57
2023-01-02T03:58:52.121Z,6.78
2023-01-02T04:01:37.228Z,6.35
2023-01-02T04:04:10.176Z,6.70
2023-01-02T04:06:42.782Z,5.65
2023-01-02T04:09:18.481Z,6.35
2023-01-02T04:11:50.888Z,6.07
2023-01-02T04:14:24.647Z,5.65
2023-01-02T04:16:53.941Z,6.78
2023-01-02T04:19:26.250Z,7.15
2023-01-02T04:21:59.044Z,7.22
2023-01-02T04:24:38.461Z,6.13
2023-01-02T04:27:12.182Z,6.75
2023-01-02T04:29:39.792Z,7.05
2023-01-02T04:32:28.843Z,6.60
2023-01-02T04:34:58.051Z,6.03
2023-01-02T04:37:33.189Z,6.45
2023-01-02T04:40:05.946Z,7.47
2023-01-02T04:42:33.395Z,7.20
2023-01-02T04:45:00.642Z,7.03
2023-01-02T04:47:29.213Z,6.90
2023-01-02T04:49:56.402Z,7.05
2023-01-02T04:52:24.066Z,7.03
2023-01-02T04:54:51.313Z,6.75
2023-01-02T04:57:18.656Z,7.15
2023-01-02T04:59:45.893Z,6.78
2023-01-02T05:02:13.415Z,6.57
2023-01-02T05:04:40.777Z,6.82
2023-01-02T05:07:08.333Z,6.63
2023-01-02T05:09:35.555Z,6.50
2023-01-02T05:12:03.083Z,6.63
2023-01-02T05:14:31.125Z,6.75
2023-01-02T05:16:58.438Z,7.80
2023-01-02T05:19:25.793Z,6.88
2023-01-02T05:22:11.770Z,6.43
2023-01-02T05:24:39.016Z,6.75
2023-01-02T05:27:06.212Z,5.15
2023-01-02T05:29:33.569Z,6.03
2023-01-02T05:32:00.914Z,5.85
2023-01-02T05:34:28.251Z,4.90
2023-01-02T05:36:55.510Z,5.68
2023-01-02T05:39:22.780Z,6.50
2023-01-02T05:41:50.028Z,6.32
2023-01-02T05:44:17.480Z,7.03
2023-01-02T05:46:44.880Z,7.32
2023-01-02T05:49:12.220Z,5.80
2023-01-02T05:51:39.510Z,6.30
2023-01-02T05:54:07.620Z,6.68
2023-01-02T05:56:35.020Z,7.20
2023-01-02T05:59:02.270Z,5.65
2023-01-02T06:01:30.437Z,7.10
2023-01-02T06:03:59.309Z,6.68
2023-01-02T06:06:45.040Z,6.70
2023-01-02T06:09:14.530Z,6.18
2023-01-02T06:11:42.389Z,6.35
2023-01-02T06:14:10.633Z,6.88
2023-01-02T06:16:39.151Z,6.63
2023-01-02T06:19:07.005Z,6.72
2023-01-02T06:21:34.509Z,6.88
2023-01-02T06:24:01.914Z,6.85
2023-01-02T06:26:34.933Z,6.47
2023-01-02T06:29:04.112Z,6.78
2023-01-02T06:31:33.290Z,6.28
2023-01-02T06:34:02.445Z,6.15
2023-01-02T06:36:31.850Z,6.20
2023-01-02T06:38:59.628Z,7.03
2023-01-02T06:41:27.102Z,6.88
2023-01-02T06:43:54.867Z,6.32
2023-01-02T06:46:24.012Z,5.70
2023-01-02T06:48:51.963Z,4.95
2023-01-02T06:51:21.677Z,5.53
2023-01-02T06:53:50.259Z,5.60
2023-01-02T06:56:19.698Z,6.43
2023-01-02T06:58:47.814Z,5.85
2023-01-02T07:01:17.889Z,5.93
2023-01-02T07:03:45.544Z,6.30
2023-01-02T07:06:18.680Z,5.15
2023-01-02T07:08:46.829Z,5.53
2023-01-02T07:11:23.402Z,6.57
2023-01-02T07:13:53.248Z,6.07
2023-01-02T07:16:22.174Z,6.38
2023-01-02T07:18:51.384Z,5.20
2023-01-02T07:21:19.473Z,5.40
2023-01-02T07:23:46.867Z,5.53
2023-01-02T07:26:14.433Z,6.63
2023-01-02T07:28:42.278Z,6.93
2023-01-02T07:31:17.718Z,6.93
2023-01-02T07:33:46.417Z,6.07
2023-01-02T07:36:17.797Z,6.38
2023-01-02T07:38:49.689Z,6.70
2023-01-02T07:41:18.957Z,7.25
2023-01-02T07:43:47.068Z,7.07
2023-01-02T07:46:17.197Z,6.53
2023-01-02T07:48:45.644Z,7.68
2023-01-02T07:51:13.416Z,6.80
2023-01-02T07:53:41.752Z,6.65
2023-01-02T07:56:09.887Z,6.13
2023-01-02T07:58:37.938Z,6.47
2023-01-02T08:01:07.351Z,6.05
2023-01-02T08:03:35.388Z,6.32
2023-01-02T08:06:08.862Z,6.53
2023-01-02T08:08:36.500Z,6.10
2023-01-02T08:11:05.544Z,6.05
2023-01-02T08:13:33.027Z,6.40
2023-01-02T08:16:08.657Z,7.30
2023-01-02T08:18:36.142Z,6.47
2023-01-02T08:21:03.992Z,6.45
2023-01-02T08:23:32.202Z,6.43
2023-01-02T08:26:04.946Z,5.97
2023-01-02T08:28:34.004Z,6.88
2023-01-02T08:31:01.619Z,6.45
2023-01-02T08:33:29.028Z,7.50
2023-01-02T08:35:56.573Z,5.90
2023-01-02T08:38:24.290Z,6.28
2023-01-02T08:40:51.706Z,5.85
2023-01-02T08:43:19.195Z,6.63
2023-01-02T08:45:46.652Z,6.53
2023-01-02T08:48:19.624Z,6.13
2023-01-02T08:50:50.108Z,6.65
2023-01-02T08:53:18.485Z,5.65
2023-01-02T08:55:45.927Z,6.68
2023-01-02T08:58:13.735Z,6.53
2023-01-02T09:00:41.140Z,5.97
2023-01-02T09:03:09.357Z,6.30
2023-01-02T09:05:36.714Z,6.88
2023-01-02T09:08:04.414Z,6.10
2023-01-02T09:10:31.884Z,6.25
2023-01-02T09:12:59.322Z,6.00
2023-01-02T09:15:27.119Z,6.55
2023-01-02T09:17:54.608Z,6.20
2023-01-02T09:20:21.998Z,5.47
2023-01-02T09:22:52.236Z,6.03
2023-01-02T09:25:24.110Z,6.40
2023-01-02T09:27:52.289Z,7.15
2023-01-02T09:30:20.148Z,6.53
2023-01-02T09:32:50.726Z,6.22
2023-01-02T09:35:18.370Z,6.03
2023-01-02T09:37:45.829Z,5.75
2023-01-02T09:40:14.416Z,6.50
2023-01-02T09:42:43.744Z,5.90
2023-01-02T09:45:13.530Z,6.15
2023-01-02T09:47:43.172Z,6.97
2023-01-02T09:50:22.161Z,6.80
2023-01-02T09:52:55.887Z,7.05
2023-01-02T09:55:43.276Z,5.97
2023-01-02T09:58:35.750Z,7.35
2023-01-02T10:01:05.297Z,5.95
2023-01-02T10:04:17.988Z,7.10
2023-01-02T10:07:04.284Z,6.20
2023-01-02T10:10:06.434Z,6.20
2023-01-02T10:12:46.164Z,5.75
2023-01-02T10:15:24.383Z,7.00
2023-01-02T10:17:57.741Z,7.03
2023-01-02T10:20:33.068Z,6.47
2023-01-02T10:23:09.977Z,5.88
2023-01-02T10:25:45.597Z,7.07
2023-01-02T10:28:26.574Z,5.72
2023-01-02T10:31:05.398Z,6.10
2023-01-02T10:33:54.019Z,6.15
2023-01-02T10:36:28.217Z,6.25
2023-01-02T10:39:00.400Z,5.35
2023-01-02T10:41:29.651Z,6.18
2023-01-02T10:44:03.707Z,6.45
2023-01-02T10:46:37.517Z,7.05
2023-01-02T10:49:07.003Z,5.70
2023-01-02T10:51:37.624Z,5.50
2023-01-02T10:54:08.115Z,5.68
2023-01-02T10:56:39.609Z,6.47
2023-01-02T10:59:22.803Z,5.45
2023-01-02T11:02:00.077Z,5.15
2023-01-02T11:04:30.275Z,4.95
2023-01-02T11:07:00.331Z,5.35
2023-01-02T11:09:30.394Z,4.60
2023-01-02T11:12:07.880Z,6.10
2023-01-02T11:14:37.161Z,6.65
2023-01-02T11:17:19.881Z,5.57
2023-01-02T11:19:50.628Z,5.78
2023-01-02T11:22:31.559Z,5.28
2023-01-02T11:25:05.969Z,6.00
2023-01-02T11:27:41.830Z,6.63
2023-01-02T11:30:24.972Z,6.18
2023-01-02T11:33:27.502Z,5.70
2023-01-02T11:35:57.880Z,6.47
2023-01-02T11:38:40.115Z,6.45
2023-01-02T11:41:24.127Z,7.00
2023-01-02T11:43:58.428Z,7.85
2023-01-02T11:46:38.062Z,6.18
2023-01-02T11:49:22.722Z,6.57
2023-01-02T11:51:59.586Z,7.15
2023-01-02T11:54:49.546Z,7.28
2023-01-02T11:57:34.722Z,6.30
2023-01-02T12:00:04.596Z,6.65
2023-01-02T12:02:43.740Z,6.45
2023-01-02T12:05:32.693Z,5.60
2023-01-02T12:08:44.557Z,6.35
2023-01-02T12:11:29.478Z,6.35
2023-01-02T12:14:18.386Z,6.07
2023-01-02T12:17:04.172Z,6.03
2023-01-02T12:19:50.145Z,5.07
2023-01-02T12:22:32.326Z,6.65
2023-01-02T12:25:36.261Z,5.97
2023-01-02T12:28:15.696Z,5.93
2023-01-02T12:31:12.793Z,6.13
2023-01-02T12:33:53.126Z,6.72
2023-01-02T12:36:30.396Z,7.20
2023-01-02T12:39:24.820Z,5.95
2023-01-02T12:42:31.161Z,6.45
2023-01-02T12:44:59.938Z,6.50
2023-01-02T12:47:59.899Z,6.07
2023-01-02T12:50:49.966Z,5.47
2023-01-02T12:54:18.641Z,5.20
2023-01-02T12:57:20.064Z,4.90
2023-01-02T13:00:18.663Z,5.63
2023-01-02T13:03:21.769Z,4.68
2023-01-02T13:06:44.723Z,4.25
2023-01-02T13:09:23.376Z,3.92
2023-01-02T13:12:04.197Z,4.20
2023-01-02T13:14:38.023Z,4.28
2023-01-02T13:17:31.743Z,3.88
2023-01-02T13:20:17.820Z,4.25
2023-01-02T13:23:01.511Z,3.70
2023-01-02T13:25:31.130Z,4.10
2023-01-02T13:28:00.125Z,4.18
2023-01-02T13:30:33.962Z,3.17
2023-01-02T13:33:03.705Z,3.15
2023-01-02T13:35:36.552Z,3.67
2023-01-02T13:38:07.554Z,2.60
2023-01-02T13:40:35.004Z,3.38
2023-01-02T13:43:06.163Z,3.47
2023-01-02T13:45:41.610Z,3.03
2023-01-02T13:48:28.033Z,3.47
2023-01-02T13:51:23.763Z,3.53
2023-01-02T13:53:52.583Z,3.72
2023-01-02T13:56:24.796Z,2.33
2023-01-02T13:58:59.105Z,3.17
2023-01-02T14:01:33.779Z,2.97
2023-01-02T14:04:08.200Z,2.33
2023-01-02T14:06:37.668Z,2.80
2023-01-02T14:09:05.070Z,2.95
2023-01-02T14:11:57.232Z,2.38
2023-01-02T14:14:46.049Z,2.22
2023-01-02T14:17:36.540Z,2.50
2023-01-02T14:20:17.292Z,3.17
2023-01-02T14:22:49.486Z,2.63
2023-01-02T14:25:17.532Z,3.10
2023-01-02T14:27:54.875Z,3.35
2023-01-02T14:30:38.675Z,3.05
2023-01-02T14:33:08.830Z,2.35
2023-01-02T14:35:40.162Z,1.80
2023-01-02T14:38:18.921Z,2.15
2023-01-02T14:40:47.075Z,2.30
2023-01-02T14:43:33.601Z,2.13
2023-01-02T14:46:03.951Z,2.72
2023-01-02T14:49:01.978Z,2.80
2023-01-02T14:52:00.245Z,2.17
2023-01-02T14:54:33.120Z,2.90
2023-01-02T14:57:27.580Z,2.53
2023-01-02T14:59:56.631Z,2.70
2023-01-02T15:02:34.495Z,1.90
2023-01-02T15:05:10.139Z,1.88
2023-01-02T15:07:50.106Z,2.50
2023-01-02T15:10:22.582Z,2.50
2023-01-02T15:13:03.694Z,2.63
2023-01-02T15:15:54.955Z,2.15
2023-01-02T15:18:34.124Z,2.50
2023-01-02T15:21:09.772Z,2.63
2023-01-02T15:23:43.073Z,2.58
2023-01-02T15:26:34.400Z,2.15
2023-01-02T15:29:07.148Z,2.35
2023-01-02T15:31:38.665Z,1.83
2023-01-02T15:34:06.143Z,2.33
2023-01-02T15:36:40.850Z,2.50
2023-01-02T15:39:15.712Z,2.10
2023-01-02T15:41:47.088Z,2.42
2023-01-02T15:44:41.655Z,2.28
2023-01-02T15:47:10.730Z,1.80
2023-01-02T15:49:43.248Z,1.58
2023-01-02T15:52:24.002Z,2.70
2023-01-02T15:54:52.318Z,1.70
2023-01-02T15:57:24.282Z,1.90
2023-01-02T15:59:51.699Z,2.80
2023-01-02T16:02:31.975Z,2.13
2023-01-02T16:05:13.439Z,2.40
2023-01-02T16:07:42.239Z,2.00
2023-01-02T16:10:18.687Z,1.98
2023-01-02T16:12:51.860Z,2.00
2023-01-02T16:15:23.583Z,1.77
2023-01-02T16:17:52.014Z,1.65
2023-01-02T16:20:21.765Z,2.08
2023-01-02T16:22:49.421Z,2.17
2023-01-02T16:25:24.350Z,2.38
2023-01-02T16:27:56.478Z,2.08
2023-01-02T16:30:29.592Z,1.75
2023-01-02T16:32:58.045Z,2.25
2023-01-02T16:35:29.568Z,2.90
2023-01-02T16:38:26.075Z,2.15
2023-01-02T16:41:11.912Z,2.20
2023-01-02T16:43:46.274Z,2.33
2023-01-02T16:46:15.903Z,2.15
2023-01-02T16:48:44.439Z,1.80
2023-01-02T16:51:13.796Z,1.73
2023-01-02T16:53:43.533Z,1.90
2023-01-02T16:56:12.319Z,1.83
2023-01-02T16:58:39.813Z,2.53
2023-01-02T17:01:13.141Z,1.80
2023-01-02T17:03:41.077Z,2.08
2023-01-02T17:06:16.463Z,2.45
2023-01-02T17:08:44.346Z,2.08
2023-01-02T17:11:16.851Z,2.60
2023-01-02T17:13:44.458Z,1.85
2023-01-02T17:16:12.055Z,2.22
2023-01-02T17:18:39.841Z,2.05
2023-01-02T17:21:07.600Z,1.65
2023-01-02T17:23:35.105Z,2.10
2023-01-02T17:26:02.768Z,1.70
2023-01-02T17:28:30.690Z,2.63
2023-01-02T17:30:58.278Z,2.30
2023-01-02T17:33:25.698Z,2.05
2023-01-02T17:35:53.145Z,2.67
2023-01-02T17:38:20.551Z,1.85
2023-01-02T17:40:48.684Z,2.35
2023-01-02T17:43:16.490Z,2.28
2023-01-02T17:45:44.015Z,1.90
2023-01-02T17:48:14.315Z,2.33
2023-01-02T17:50:44.632Z,2.47
2023-01-02T17:53:12.240Z,2.40
2023-01-02T17:55:39.692Z,2.38
2023-01-02T17:58:07.724Z,2.53
2023-01-02T18:00:35.069Z,2.60
2023-01-02T18:03:02.517Z,2.28
2023-01-02T18:05:30.936Z,2.17
2023-01-02T18:07:58.383Z,2.33
2023-01-02T18:10:32.585Z,2.85
2023-01-02T18:13:00.487Z,2.53
2023-01-02T18:15:28.721Z,1.90
2023-01-02T18:17:56.295Z,2.08
2023-01-02T18:20:23.751Z,2.40
2023-01-02T18:22:51.450Z,1.85
2023-01-02T18:25:29.818Z,2.10
2023-01-02T18:28:05.063Z,3.17
2023-01-02T18:30:32.614Z,2.50
2023-01-02T18:33:11.006Z,2.28
2023-01-02T18:35:56.787Z,1.63
2023-01-02T18:38:37.820Z,2.15
2023-01-02T18:41:21.418Z,2.05
2023-01-02T18:43:49.942Z,2.42
2023-01-02T18:46:24.597Z,2.03
2023-01-02T18:48:54.427Z,2.40
2023-01-02T18:51:23.981Z,2.90
2023-01-02T18:53:53.372Z,2.20
2023-01-02T18:56:26.273Z,2.72
2023-01-02T18:59:02.790Z,3.45
2023-01-02T19:01:35.678Z,2.60
2023-01-02T19:04:18.986Z,1.80
2023-01-02T19:06:55.967Z,2.15
2023-01-02T19:09:32.323Z,2.53
2023-01-02T19:12:43.679Z,2.97
2023-01-02T19:15:54.937Z,2.13
2023-01-02T19:18:38.458Z,2.72
2023-01-02T19:21:08.497Z,3.00
2023-01-02T19:23:44.711Z,2.22
2023-01-02T19:26:23.870Z,2.25
2023-01-02T19:28:57.239Z,2.60
2023-01-02T19:31:26.166Z,2.85
2023-01-02T19:33:57.590Z,2.45
2023-01-02T19:36:43.297Z,2.58
2023-01-02T19:39:35.816Z,2.85
2023-01-02T19:42:22.974Z,2.00
2023-01-02T19:45:01.940Z,2.80
2023-01-02T19:47:32.413Z,2.42
2023-01-02T19:50:01.043Z,2.83
2023-01-02T19:52:29.908Z,3.15
2023-01-02T19:54:57.961Z,2.10
2023-01-02T19:57:25.526Z,1.95
2023-01-02T19:59:55.671Z,2.53
2023-01-02T20:02:24.110Z,2.50
2023-01-02T20:04:53.713Z,4.03
2023-01-02T20:07:23.104Z,2.88
2023-01-02T20:09:50.720Z,2.92
2023-01-02T20:12:30.641Z,2.65
2023-01-02T20:15:04.391Z,2.83
2023-01-02T20:17:32.489Z,2.35
2023-01-02T20:20:00.293Z,2.83
2023-01-02T20:22:28.593Z,3.03
2023-01-02T20:24:56.238Z,2.60
2023-01-02T20:27:24.962Z,2.88
2023-01-02T20:29:55.078Z,2.83
2023-01-02T20:32:23.627Z,2.80
2023-01-02T20:34:51.636Z,2.67
2023-01-02T20:37:22.284Z,2.10
2023-01-02T20:39:51.744Z,2.30
2023-01-02T20:42:20.375Z,2.47
2023-01-02T20:44:48.553Z,1.63
2023-01-02T20:47:16.433Z,1.55
2023-01-02T20:49:43.810Z,1.65
2023-01-02T20:52:11.669Z,2.00
2023-01-02T20:54:38.965Z,1.67
2023-01-02T20:57:06.375Z,1.75
2023-01-02T20:59:33.771Z,1.10
2023-01-02T21:02:01.390Z,1.20
2023-01-02T21:04:34.540Z,1.80
2023-01-02T21:07:05.322Z,1.30
2023-01-02T21:09:33.233Z,1.60
2023-01-02T21:12:00.636Z,1.08
2023-01-02T21:14:32.354Z,2.08
2023-01-02T21:17:03.220Z,1.02
2023-01-02T21:19:30.466Z,0.90
2023-01-02T21:21:57.792Z,1.83
2023-01-02T21:24:25.056Z,1.33
2023-01-02T21:26:52.451Z,1.35
2023-01-02T21:29:20.538Z,1.27
2023-01-02T21:31:47.856Z,0.90
2023-01-02T21:34:15.228Z,1.02
2023-01-02T21:36:42.537Z,0.80
2023-01-02T21:39:10.621Z,0.90
2023-01-02T21:41:56.543Z,0.93
2023-01-02T21:44:23.765Z,1.08
2023-01-02T21:46:51.200Z,0.70
2023-01-02T21:49:18.481Z,1.25
2023-01-02T21:51:45.993Z,0.90
2023-01-02T21:54:13.224Z,0.80
2023-01-02T21:56:40.582Z,1.13
2023-01-02T21:59:07.799Z,1.30
2023-01-02T22:01:35.400Z,1.33
2023-01-02T22:04:02.917Z,0.80
2023-01-02T22:06:34.069Z,1.10
2023-01-02T22:09:02.124Z,0.98
2023-01-02T22:11:48.594Z,0.82
2023-01-02T22:14:15.977Z,0.73
2023-01-02T22:16:43.363Z,1.70
2023-01-02T22:19:11.097Z,1.00
2023-01-02T22:21:38.512Z,0.73
2023-01-02T22:24:06.726Z,1.17
2023-01-02T22:26:35.970Z,0.95
2023-01-02T22:29:04.268Z,0.90
2023-01-02T22:31:32.667Z,1.55
2023-01-02T22:34:01.932Z,1.02
2023-01-02T22:36:32.433Z,0.90
2023-01-02T22:39:27.224Z,1.00
2023-01-02T22:42:48.872Z,0.82
2023-01-02T22:45:01.860Z,1.15
2023-01-02T22:47:32.314Z,1.00
2023-01-02T22:50:00.612Z,0.90
2023-01-02T22:52:29.973Z,0.88
2023-01-02T22:54:57.321Z,1.00
2023-01-02T22:57:24.537Z,1.33
2023-01-02T22:59:52.003Z,0.80
2023-01-02T23:02:21.273Z,0.80
2023-01-02T23:04:48.907Z,0.75
2023-01-02T23:07:24.361Z,0.70
2023-01-02T23:09:52.106Z,0.65
2023-01-02T23:12:19.498Z,1.05
2023-01-02T23:14:47.511Z,1.25
2023-01-02T23:17:33.554Z,1.00
2023-01-02T23:20:00.782Z,0.70
2023-01-02T23:22:28.166Z,0.80
2023-01-02T23:24:55.417Z,0.65
2023-01-02T23:27:22.985Z,1.10
2023-01-02T23:29:50.747Z,0.95
2023-01-02T23:32:18.196Z,0.75
2023-01-02T23:34:45.850Z,0.80
2023-01-02T23:37:13.345Z,1.00
2023-01-02T23:39:42.534Z,0.90
2023-01-02T23:42:09.777Z,1.13
2023-01-02T23:44:38.332Z,0.98
2023-01-02T23:47:10.792Z,0.90
2023-01-02T23:49:41.677Z,1.00
2023-01-02T23:52:09.420Z,0.88
2023-01-02T23:54:36.721Z,1.25
2023-01-02T23:57:03.994Z,1.10
2023-01-02T23:59:31.270Z,0.77
